createdAt,value
2016-07-25T00:00:57.968Z,85.94
2016-07-25T00:01:58.664Z,85.64
2016-07-25T00:02:57.951Z,86.13
2016-07-25T00:03:57.944Z,86.18
2016-07-25T00:04:58.646Z,86.22
2016-07-25T00:05:57.935Z,86.08
2016-07-25T00:06:58.631Z,86.22
2016-07-25T00:07:57.915Z,86.03
2016-07-25T00:08:57.916Z,85.99
2016-07-25T00:09:57.904Z,86.47
2016-07-25T00:10:57.895Z,87.05
2016-07-25T00:11:58.597Z,86.57
2016-07-25T00:12:57.885Z,86.47
2016-07-25T00:13:58.581Z,86.66
2016-07-25T00:14:58.573Z,86.86
2016-07-25T00:15:57.865Z,86.76
2016-07-25T00:16:58.560Z,87.1
2016-07-25T00:17:58.603Z,87.15
2016-07-25T00:18:58.549Z,87.44
2016-07-25T00:19:57.833Z,87.24
2016-07-25T00:20:57.830Z,87.68
2016-07-25T00:21:57.822Z,87.44
2016-07-25T00:22:58.520Z,87.78
2016-07-25T00:23:57.806Z,87.4
2016-07-25T00:24:57.798Z,87.49
2016-07-25T00:25:58.497Z,87.68
2016-07-25T00:26:58.493Z,87.68
2016-07-25T00:27:58.484Z,87.97
2016-07-25T00:28:58.484Z,88.26
2016-07-25T00:29:57.764Z,87.97
2016-07-25T00:30:57.755Z,88.17
2016-07-25T00:31:57.746Z,88.55
2016-07-25T00:32:58.479Z,88.84
2016-07-25T00:33:57.733Z,88.75
2016-07-25T00:34:57.728Z,89.03
2016-07-25T00:35:57.717Z,88.45
2016-07-25T00:36:58.416Z,89.03
2016-07-25T00:37:58.408Z,88.93
2016-07-25T00:38:57.696Z,88.93
2016-07-25T00:39:57.689Z,89.13
2016-07-25T00:40:57.684Z,89.32
2016-07-25T00:41:57.674Z,89.18
2016-07-25T00:42:57.669Z,89.28
2016-07-25T00:43:57.862Z,88.75
2016-07-25T00:44:58.363Z,89.09
2016-07-25T00:45:57.646Z,88.79
2016-07-25T00:46:58.357Z,89.23
2016-07-25T00:47:57.634Z,88.93
2016-07-25T00:48:57.628Z,88.84
2016-07-25T00:49:58.324Z,89.23
2016-07-25T00:50:57.612Z,88.84
2016-07-25T00:51:57.610Z,88.75
2016-07-25T00:52:58.308Z,88.75
2016-07-25T00:53:57.587Z,89.42
2016-07-25T00:54:57.583Z,88.75
2016-07-25T00:55:57.576Z,88.84
2016-07-25T00:56:57.571Z,88.65
2016-07-25T00:57:57.559Z,88.79
2016-07-25T00:58:57.553Z,88.41
2016-07-25T00:59:57.544Z,88.89
2016-07-25T01:00:57.540Z,88.84
2016-07-25T01:01:58.241Z,88.99
2016-07-25T01:02:57.524Z,89.18
2016-07-25T01:03:57.516Z,89.28
2016-07-25T01:04:57.511Z,89.09
2016-07-25T01:05:57.499Z,89.18
2016-07-25T01:06:57.496Z,89.18
2016-07-25T01:07:58.193Z,89.18
2016-07-25T01:08:57.479Z,89.67
2016-07-25T01:09:57.469Z,89.57
2016-07-25T01:10:58.175Z,89.57
2016-07-25T01:11:57.454Z,89.76
2016-07-25T01:12:58.158Z,89.37
2016-07-25T01:13:58.150Z,90.05
2016-07-25T01:14:57.437Z,89.76
2016-07-25T01:15:58.135Z,89.67
2016-07-25T01:16:57.422Z,89.81
2016-07-25T01:17:58.121Z,89.67
2016-07-25T01:18:58.115Z,89.67
2016-07-25T01:19:57.401Z,89.13
2016-07-25T01:20:57.395Z,89.86
2016-07-25T01:21:58.099Z,89.86
2016-07-25T01:22:58.091Z,89.76
2016-07-25T01:23:57.379Z,89.95
2016-07-25T01:24:58.082Z,90.44
2016-07-25T01:25:57.356Z,90.15
2016-07-25T01:26:58.056Z,90.24
2016-07-25T01:27:58.051Z,90.34
2016-07-25T01:28:57.334Z,89.95
2016-07-25T01:29:57.328Z,90.34
2016-07-25T01:30:57.319Z,90.05
2016-07-25T01:31:57.312Z,90.05
2016-07-25T01:32:57.306Z,90.05
2016-07-25T01:33:57.296Z,90.82
2016-07-25T01:34:58.003Z,90.24
2016-07-25T01:35:57.991Z,89.95
2016-07-25T01:36:57.273Z,91.02
2016-07-25T01:37:57.267Z,90.82
2016-07-25T01:38:57.966Z,90.72
2016-07-25T01:39:57.253Z,90.44
2016-07-25T01:40:57.249Z,90.53
2016-07-25T01:41:57.240Z,91.6
2016-07-25T01:42:57.947Z,91.4
2016-07-25T01:43:57.228Z,91.6
2016-07-25T01:44:57.925Z,91.6
2016-07-25T01:45:57.921Z,91.3
2016-07-25T01:46:57.912Z,91.2
2016-07-25T01:47:57.915Z,91.11
2016-07-25T01:48:57.893Z,91.3
2016-07-25T01:49:57.182Z,91.5
2016-07-25T01:50:57.881Z,91.02
2016-07-25T01:51:57.164Z,91.6
2016-07-25T01:52:57.864Z,90.82
2016-07-25T01:53:57.150Z,91.2
2016-07-25T01:54:57.852Z,91.6
2016-07-25T01:55:57.845Z,91.5
2016-07-25T01:56:57.127Z,90.92
2016-07-25T01:57:57.122Z,91.6
2016-07-25T01:58:57.820Z,91.69
2016-07-25T01:59:57.104Z,91.69
2016-07-25T02:00:57.097Z,91.98
2016-07-25T02:01:57.090Z,91.78
2016-07-25T02:02:57.085Z,91.02
2016-07-25T02:03:57.782Z,91.2
2016-07-25T02:04:57.067Z,91.2
2016-07-25T02:05:57.060Z,90.63
2016-07-25T02:06:57.054Z,91.11
2016-07-25T02:07:57.046Z,91.02
2016-07-25T02:08:57.746Z,90.82
2016-07-25T02:09:57.031Z,91.3
2016-07-25T02:10:57.022Z,90.72
2016-07-25T02:11:57.722Z,90.63
2016-07-25T02:12:57.007Z,90.44
2016-07-25T02:13:57.721Z,90.15
2016-07-25T02:14:57.705Z,90.44
2016-07-25T02:15:57.006Z,90.63
2016-07-25T02:16:57.684Z,90.53
2016-07-25T02:17:57.681Z,90.24
2016-07-25T02:18:56.963Z,90.44
2016-07-25T02:19:56.957Z,91.02
2016-07-25T02:20:56.951Z,91.02
2016-07-25T02:21:56.941Z,90.82
2016-07-25T02:22:56.935Z,91.02
2016-07-25T02:23:56.928Z,90.34
2016-07-25T02:24:56.921Z,90.34
2016-07-25T02:25:57.618Z,91.02
2016-07-25T02:26:56.904Z,90.63
2016-07-25T02:27:56.905Z,90.53
2016-07-25T02:28:56.890Z,90.63
2016-07-25T02:29:56.884Z,90.53
2016-07-25T02:30:57.583Z,90.34
2016-07-25T02:31:56.868Z,90.39
2016-07-25T02:32:57.578Z,90.63
2016-07-25T02:33:57.562Z,90.63
2016-07-25T02:34:57.556Z,90.82
2016-07-25T02:35:57.547Z,91.02
2016-07-25T02:36:57.537Z,90.44
2016-07-25T02:37:56.827Z,90.48
2016-07-25T02:38:56.818Z,90.58
2016-07-25T02:39:56.814Z,91.4
2016-07-25T02:40:56.807Z,92.13
2016-07-25T02:41:57.506Z,91.55
2016-07-25T02:42:56.787Z,91.74
2016-07-25T02:43:57.687Z,91.36
2016-07-25T02:44:56.771Z,91.16
2016-07-25T02:45:56.764Z,91.6
2016-07-25T02:46:56.756Z,91.16
2016-07-25T02:47:57.461Z,91.26
2016-07-25T02:48:56.745Z,91.16
2016-07-25T02:49:56.738Z,91.26
2016-07-25T02:50:56.731Z,91.16
2016-07-25T02:51:56.720Z,91.55
2016-07-25T02:52:56.713Z,91.45
2016-07-25T02:53:56.719Z,91.55
2016-07-25T02:54:57.407Z,91.55
2016-07-25T02:55:56.694Z,91.36
2016-07-25T02:56:56.682Z,91.55
2016-07-25T02:57:56.679Z,91.83
2016-07-25T02:58:57.375Z,91.45
2016-07-25T02:59:57.369Z,91.55
2016-07-25T03:00:56.654Z,91.36
2016-07-25T03:01:57.354Z,91.83
2016-07-25T03:02:57.350Z,91.36
2016-07-25T03:03:56.630Z,91.64
2016-07-25T03:04:56.623Z,91.55
2016-07-25T03:05:56.616Z,91.64
2016-07-25T03:06:57.316Z,91.5
2016-07-25T03:07:56.602Z,91.45
2016-07-25T03:08:57.301Z,91.88
2016-07-25T03:09:57.290Z,91.93
2016-07-25T03:10:57.282Z,92.13
2016-07-25T03:11:56.567Z,92.03
2016-07-25T03:12:57.268Z,91.74
2016-07-25T03:13:56.553Z,92.03
2016-07-25T03:14:57.261Z,91.55
2016-07-25T03:15:56.539Z,91.74
2016-07-25T03:16:56.537Z,91.55
2016-07-25T03:17:56.523Z,91.74
2016-07-25T03:18:56.518Z,91.45
2016-07-25T03:19:56.508Z,91.55
2016-07-25T03:20:56.503Z,91.64
2016-07-25T03:21:57.200Z,91.93
2016-07-25T03:22:56.489Z,91.06
2016-07-25T03:23:56.474Z,91.93
2016-07-25T03:24:56.472Z,92.03
2016-07-25T03:25:57.174Z,91.93
2016-07-25T03:26:57.162Z,92.03
2016-07-25T03:27:56.450Z,92.32
2016-07-25T03:28:57.149Z,92.8
2016-07-25T03:29:57.138Z,92.51
2016-07-25T03:30:56.425Z,92.51
2016-07-25T03:31:57.126Z,92.61
2016-07-25T03:32:56.409Z,92.8
2016-07-25T03:33:56.404Z,93.38
2016-07-25T03:34:56.394Z,92.51
2016-07-25T03:35:56.388Z,92.51
2016-07-25T03:36:56.381Z,92.71
2016-07-25T03:37:57.079Z,92.9
2016-07-25T03:38:56.366Z,92.61
2016-07-25T03:39:57.062Z,92.32
2016-07-25T03:40:56.350Z,92.71
2016-07-25T03:41:56.343Z,92.61
2016-07-25T03:42:57.039Z,92.41
2016-07-25T03:43:56.337Z,93.09
2016-07-25T03:44:56.341Z,92.41
2016-07-25T03:45:56.322Z,92.32
2016-07-25T03:46:57.009Z,92.32
2016-07-25T03:47:56.297Z,92.41
2016-07-25T03:48:56.285Z,92.8
2016-07-25T03:49:56.989Z,92.51
2016-07-25T03:50:56.991Z,92.32
2016-07-25T03:51:56.269Z,92.61
2016-07-25T03:52:56.258Z,92.8
2016-07-25T03:53:56.249Z,92.51
2016-07-25T03:54:56.244Z,92.8
2016-07-25T03:55:56.238Z,92.61
2016-07-25T03:56:56.225Z,92.61
2016-07-25T03:57:56.932Z,92.99
2016-07-25T03:58:56.220Z,92.51
2016-07-25T03:59:56.220Z,93.09
2016-07-25T04:00:56.907Z,93.09
2016-07-25T04:01:56.188Z,92.99
2016-07-25T04:02:56.184Z,93.19
2016-07-25T04:03:56.173Z,93.19
2016-07-25T04:04:56.873Z,93.81
2016-07-25T04:05:56.160Z,93.76
2016-07-25T04:06:56.862Z,93.57
2016-07-25T04:07:56.854Z,92.99
2016-07-25T04:08:56.140Z,93.19
2016-07-25T04:09:56.836Z,93.19
2016-07-25T04:10:56.122Z,93.09
2016-07-25T04:11:56.828Z,93.38
2016-07-25T04:12:56.107Z,93.19
2016-07-25T04:13:56.098Z,93.19
2016-07-25T04:14:56.092Z,93.38
2016-07-25T04:15:56.790Z,93.38
2016-07-25T04:16:56.790Z,92.32
2016-07-25T04:17:56.778Z,92.41
2016-07-25T04:18:56.062Z,92.61
2016-07-25T04:19:56.065Z,92.51
2016-07-25T04:20:56.049Z,92.61
2016-07-25T04:21:56.038Z,93.28
2016-07-25T04:22:56.032Z,93.38
2016-07-25T04:23:56.730Z,93.38
2016-07-25T04:24:56.725Z,93.19
2016-07-25T04:25:56.715Z,92.99
2016-07-25T04:26:56.003Z,93.28
2016-07-25T04:27:56.705Z,93.09
2016-07-25T04:28:55.986Z,93.19
2016-07-25T04:29:55.984Z,93.28
2016-07-25T04:30:55.973Z,93.09
2016-07-25T04:31:55.960Z,93.19
2016-07-25T04:32:55.957Z,93.38
2016-07-25T04:33:56.661Z,93.66
2016-07-25T04:34:56.648Z,93.09
2016-07-25T04:35:56.638Z,93.38
2016-07-25T04:36:56.646Z,93.28
2016-07-25T04:37:55.916Z,93.09
2016-07-25T04:38:55.912Z,93.09
2016-07-25T04:39:55.904Z,93.19
2016-07-25T04:40:55.910Z,93.19
2016-07-25T04:41:56.596Z,93.38
2016-07-25T04:42:56.587Z,93.38
2016-07-25T04:43:55.873Z,92.99
2016-07-25T04:44:55.863Z,93.09
2016-07-25T04:45:56.566Z,92.8
2016-07-25T04:46:55.849Z,92.61
2016-07-25T04:47:55.843Z,92.71
2016-07-25T04:48:56.539Z,92.61
2016-07-25T04:49:55.829Z,92.71
2016-07-25T04:50:56.527Z,92.32
2016-07-25T04:51:55.815Z,92.32
2016-07-25T04:52:55.804Z,92.8
2016-07-25T04:53:55.798Z,92.71
2016-07-25T04:54:55.790Z,92.41
2016-07-25T04:55:55.987Z,92.8
2016-07-25T04:56:56.483Z,92.03
2016-07-25T04:57:55.775Z,92.32
2016-07-25T04:58:55.759Z,92.32
2016-07-25T04:59:55.760Z,92.71
2016-07-25T05:00:55.745Z,92.9
2016-07-25T05:01:56.448Z,93.28
2016-07-25T05:02:55.730Z,92.61
2016-07-25T05:03:55.724Z,92.71
2016-07-25T05:04:56.426Z,92.9
2016-07-25T05:05:56.417Z,92.51
2016-07-25T05:06:55.699Z,92.71
2016-07-25T05:07:55.696Z,92.51
2016-07-25T05:08:56.395Z,92.71
2016-07-25T05:09:56.389Z,92.51
2016-07-25T05:10:55.674Z,93.09
2016-07-25T05:11:55.671Z,93.38
2016-07-25T05:12:55.660Z,93.09
2016-07-25T05:13:55.676Z,92.99
2016-07-25T05:14:56.356Z,93.28
2016-07-25T05:15:55.636Z,93.09
2016-07-25T05:16:55.628Z,92.99
2016-07-25T05:17:55.620Z,93.28
2016-07-25T05:18:56.321Z,93.28
2016-07-25T05:19:55.608Z,92.9
2016-07-25T05:20:55.599Z,93.48
2016-07-25T05:21:55.589Z,93.66
2016-07-25T05:22:55.585Z,93.57
2016-07-25T05:23:56.290Z,93.57
2016-07-25T05:24:56.279Z,93.96
2016-07-25T05:25:56.269Z,93.96
2016-07-25T05:26:55.556Z,93.76
2016-07-25T05:27:55.545Z,93.57
2016-07-25T05:28:55.542Z,93.86
2016-07-25T05:29:56.236Z,93.76
2016-07-25T05:30:56.234Z,93.76
2016-07-25T05:31:55.523Z,93.66
2016-07-25T05:32:56.220Z,94.15
2016-07-25T05:33:56.209Z,94.06
2016-07-25T05:34:55.504Z,94.24
2016-07-25T05:35:56.193Z,94.82
2016-07-25T05:36:56.187Z,94.15
2016-07-25T05:37:56.180Z,94.54
2016-07-25T05:38:55.469Z,94.73
2016-07-25T05:39:55.456Z,94.24
2016-07-25T05:40:55.454Z,94.73
2016-07-25T05:41:55.441Z,94.92
2016-07-25T05:42:55.434Z,94.82
2016-07-25T05:43:56.135Z,94.73
2016-07-25T05:44:55.425Z,94.54
2016-07-25T05:45:55.412Z,94.92
2016-07-25T05:46:56.115Z,94.63
2016-07-25T05:47:55.395Z,94.73
2016-07-25T05:48:56.098Z,95.11
2016-07-25T05:49:56.087Z,94.63
2016-07-25T05:50:55.380Z,95.11
2016-07-25T05:51:55.365Z,95.11
2016-07-25T05:52:56.071Z,94.24
2016-07-25T05:53:55.354Z,94.82
2016-07-25T05:54:55.344Z,95.26
2016-07-25T05:55:55.339Z,94.96
2016-07-25T05:56:56.034Z,95.06
2016-07-25T05:57:55.326Z,94.48
2016-07-25T05:58:55.315Z,94.68
2016-07-25T05:59:55.319Z,94.68
2016-07-25T06:00:55.301Z,94
2016-07-25T06:01:55.299Z,94.1
2016-07-25T06:02:55.287Z,94.58
2016-07-25T06:03:55.281Z,93.81
2016-07-25T06:04:55.271Z,93.81
2016-07-25T06:05:55.977Z,93.33
2016-07-25T06:06:55.257Z,93.23
2016-07-25T06:07:55.249Z,93.33
2016-07-25T06:08:55.241Z,93.62
2016-07-25T06:09:55.243Z,93.81
2016-07-25T06:10:55.242Z,93.62
2016-07-25T06:11:55.220Z,93.33
2016-07-25T06:12:55.218Z,92.65
2016-07-25T06:13:55.917Z,93.33
2016-07-25T06:14:55.905Z,93.33
2016-07-25T06:15:55.904Z,92.94
2016-07-25T06:16:55.184Z,93.33
2016-07-25T06:17:55.179Z,93.23
2016-07-25T06:18:55.880Z,93.13
2016-07-25T06:19:55.164Z,93.04
2016-07-25T06:20:55.875Z,92.94
2016-07-25T06:21:55.862Z,93.04
2016-07-25T06:22:55.849Z,93.04
2016-07-25T06:23:55.845Z,93.23
2016-07-25T06:24:55.976Z,92.56
2016-07-25T06:25:55.129Z,92.56
2016-07-25T06:26:55.115Z,92.65
2016-07-25T06:27:55.870Z,92.6
2016-07-25T06:28:55.106Z,92.7
2016-07-25T06:29:55.815Z,92.8
2016-07-25T06:30:55.086Z,92.32
2016-07-25T06:31:55.078Z,92.12
2016-07-25T06:32:55.062Z,92.12
2016-07-25T06:33:55.772Z,91.64
2016-07-25T06:34:55.060Z,90.87
2016-07-25T06:35:55.761Z,90.77
2016-07-25T06:36:55.811Z,90.58
2016-07-25T06:37:55.813Z,90.48
2016-07-25T06:38:55.031Z,90.29
2016-07-25T06:39:55.030Z,90.48
2016-07-25T06:40:55.721Z,90
2016-07-25T06:41:55.012Z,90.77
2016-07-25T06:42:55.005Z,89.75
2016-07-25T06:43:55.257Z,89.47
2016-07-25T06:44:55.695Z,89.47
2016-07-25T06:45:54.982Z,89.27
2016-07-25T06:46:54.977Z,89.07
2016-07-25T06:47:54.970Z,88.89
2016-07-25T06:48:54.960Z,89.07
2016-07-25T06:49:55.709Z,88.83
2016-07-25T06:50:55.658Z,88.73
2016-07-25T06:51:54.941Z,87.53
2016-07-25T06:52:54.935Z,87.58
2016-07-25T06:53:55.633Z,86.13
2016-07-25T06:54:54.920Z,86.13
2016-07-25T06:55:54.917Z,85.36
2016-07-25T06:56:55.633Z,85.55
2016-07-25T06:57:54.898Z,84.88
2016-07-25T06:58:54.891Z,83.62
2016-07-25T06:59:55.599Z,83.91
2016-07-25T07:00:54.881Z,84.3
2016-07-25T07:01:55.580Z,84.2
2016-07-25T07:02:55.576Z,83.37
2016-07-25T07:03:54.859Z,83.52
2016-07-25T07:04:55.661Z,83.62
2016-07-25T07:05:54.851Z,82.94
2016-07-25T07:06:54.839Z,82.79
2016-07-25T07:07:55.541Z,83.08
2016-07-25T07:08:55.027Z,82.79
2016-07-25T07:09:55.523Z,83.66
2016-07-25T07:10:55.520Z,83.66
2016-07-25T07:11:54.809Z,83.37
2016-07-25T07:12:54.802Z,84.33
2016-07-25T07:13:55.498Z,84.33
2016-07-25T07:14:55.496Z,83.47
2016-07-25T07:15:54.778Z,83.75
2016-07-25T07:16:54.771Z,83.85
2016-07-25T07:17:54.765Z,83.56
2016-07-25T07:18:55.466Z,84.24
2016-07-25T07:19:54.761Z,81.96
2016-07-25T07:20:54.749Z,83.47
2016-07-25T07:21:55.446Z,82.25
2016-07-25T07:23:54.730Z,80.32
2016-07-25T07:24:55.427Z,77.9
2016-07-25T07:25:55.420Z,78.19
2016-07-25T07:26:55.414Z,78.67
2016-07-25T07:27:54.700Z,79.06
2016-07-25T07:28:55.403Z,77.61
2016-07-25T07:29:54.693Z,78.64
2016-07-25T07:30:54.682Z,77.61
2016-07-25T07:31:54.675Z,78.34
2016-07-25T07:32:54.668Z,78.64
2016-07-25T07:33:55.374Z,78.64
2016-07-25T07:34:54.664Z,78.06
2016-07-25T07:35:54.650Z,78.73
2016-07-25T07:36:54.645Z,77.86
2016-07-25T07:37:54.643Z,76.61
2016-07-25T07:38:55.338Z,75.39
2016-07-25T07:39:54.624Z,75.37
2016-07-25T07:40:55.640Z,73.82
2016-07-25T07:41:55.328Z,72.5
2016-07-25T07:42:54.608Z,73.02
2016-07-25T07:43:54.602Z,72.44
2016-07-25T07:44:55.309Z,72.63
2016-07-25T07:45:55.300Z,72.53
2016-07-25T07:46:54.585Z,71.66
2016-07-25T07:47:54.581Z,72.63
2016-07-25T07:48:54.575Z,72.77
2016-07-25T07:49:55.280Z,73.35
2016-07-25T07:50:54.563Z,73.05
2016-07-25T07:51:54.574Z,71.7
2016-07-25T07:52:54.553Z,72.53
2016-07-25T07:53:54.549Z,71.95
2016-07-25T07:54:54.540Z,72.11
2016-07-25T07:55:55.245Z,72.15
2016-07-25T07:56:55.242Z,72.34
2016-07-25T07:57:54.527Z,72.63
2016-07-25T07:58:54.527Z,71.18
2016-07-25T07:59:54.525Z,70.18
2016-07-25T08:00:55.221Z,67.83
2016-07-25T08:01:54.521Z,67.66
2016-07-25T08:03:55.216Z,67.02
2016-07-25T08:04:55.206Z,64.53
2016-07-25T08:05:55.199Z,64.72
2016-07-25T08:06:54.484Z,64.53
2016-07-25T08:07:54.482Z,63.68
2016-07-25T08:08:54.477Z,63.2
2016-07-25T08:09:54.476Z,63.68
2016-07-25T08:10:55.176Z,63.71
2016-07-25T08:11:54.467Z,61.87
2016-07-25T08:12:54.464Z,61.47
2016-07-25T08:13:55.170Z,61.41
2016-07-25T08:14:55.165Z,59.95
2016-07-25T08:15:54.452Z,59.85
2016-07-25T08:16:54.450Z,62.29
2016-07-25T08:17:54.444Z,62.93
2016-07-25T08:18:55.152Z,61.74
2016-07-25T08:19:54.439Z,63.97
2016-07-25T08:20:55.141Z,65.79
2016-07-25T08:21:55.149Z,65.56
2016-07-25T08:22:54.426Z,65.72
2016-07-25T08:23:54.424Z,66.69
2016-07-25T08:24:55.129Z,66.08
2016-07-25T08:25:55.127Z,66.27
2016-07-25T08:26:54.422Z,66.44
2016-07-25T08:27:54.406Z,67.08
2016-07-25T08:28:55.115Z,68.05
2016-07-25T08:29:54.403Z,69.31
2016-07-25T08:30:55.105Z,70.18
2016-07-25T08:31:54.393Z,70.37
2016-07-25T08:32:55.098Z,68.63
2016-07-25T08:33:55.096Z,68.24
2016-07-25T08:34:54.803Z,68.34
2016-07-25T08:35:54.374Z,66.5
2016-07-25T08:36:55.076Z,68.02
2016-07-25T08:37:55.073Z,65.47
2016-07-25T08:38:54.360Z,63.17
2016-07-25T08:39:54.355Z,62.94
2016-07-25T08:40:54.360Z,64.26
2016-07-25T08:41:54.346Z,64.17
2016-07-25T08:42:55.050Z,63.75
2016-07-25T08:43:55.044Z,64.59
2016-07-25T08:44:54.334Z,64.88
2016-07-25T08:45:55.036Z,65.56
2016-07-25T08:46:54.324Z,64.01
2016-07-25T08:47:54.320Z,62.19
2016-07-25T08:48:55.032Z,65.11
2016-07-25T08:49:54.310Z,65.2
2016-07-25T08:50:54.313Z,64.4
2016-07-25T08:51:54.298Z,64.69
2016-07-25T08:52:55.005Z,65.37
2016-07-25T08:53:55.001Z,64.4
2016-07-25T08:54:54.288Z,64.92
2016-07-25T08:55:54.284Z,64.4
2016-07-25T08:56:54.983Z,64.72
2016-07-25T08:57:54.980Z,64.62
2016-07-25T08:58:54.271Z,65.59
2016-07-25T08:59:54.262Z,63.46
2016-07-25T09:00:54.256Z,65.72
2016-07-25T09:01:54.960Z,63.56
2016-07-25T09:02:54.247Z,64.33
2016-07-25T09:03:54.244Z,63.95
2016-07-25T09:04:54.237Z,64.43
2016-07-25T09:05:54.947Z,64.01
2016-07-25T09:06:55.031Z,64.3
2016-07-25T09:07:54.223Z,64.78
2016-07-25T09:08:54.219Z,65.08
2016-07-25T09:09:54.924Z,66.34
2016-07-25T09:10:54.222Z,65.66
2016-07-25T09:11:54.209Z,65.27
2016-07-25T09:12:54.904Z,66.14
2016-07-25T09:13:54.922Z,66.4
2016-07-25T09:14:54.185Z,67.4
2016-07-25T09:15:54.185Z,66.05
2016-07-25T09:16:54.381Z,65.95
2016-07-25T09:17:54.879Z,65.98
2016-07-25T09:18:54.218Z,65.3
2016-07-25T09:19:54.872Z,65.5
2016-07-25T09:20:54.160Z,66.86
2016-07-25T09:21:54.861Z,66.08
2016-07-25T09:22:54.145Z,63.78
2016-07-25T09:23:54.850Z,61.38
2016-07-25T09:24:54.138Z,61.12
2016-07-25T09:25:54.129Z,61.51
2016-07-25T09:26:54.842Z,60.93
2016-07-25T09:27:54.124Z,60.08
2016-07-25T09:28:54.117Z,60.41
2016-07-25T09:29:54.108Z,58.39
2016-07-25T09:30:54.813Z,59.39
2016-07-25T09:31:54.100Z,58.69
2016-07-25T09:32:54.802Z,59.43
2016-07-25T09:33:54.091Z,60.41
2016-07-25T09:34:54.088Z,59.99
2016-07-25T09:35:54.083Z,59.89
2016-07-25T09:36:54.782Z,60.08
2016-07-25T09:37:54.779Z,60.05
2016-07-25T09:38:54.775Z,61.02
2016-07-25T09:39:54.061Z,60.83
2016-07-25T09:40:54.060Z,62.29
2016-07-25T09:41:54.763Z,61.9
2016-07-25T09:42:54.052Z,62.19
2016-07-25T09:43:54.047Z,63.04
2016-07-25T09:44:54.040Z,62.45
2016-07-25T09:45:54.743Z,62.55
2016-07-25T09:46:54.031Z,62.74
2016-07-25T09:47:54.028Z,61.77
2016-07-25T09:48:54.021Z,61.87
2016-07-25T09:49:54.725Z,63.52
2016-07-25T09:50:54.014Z,63.98
2016-07-25T09:51:54.005Z,63.2
2016-07-25T09:52:54.005Z,64.33
2016-07-25T09:53:53.998Z,64.14
2016-07-25T09:54:54.700Z,64.98
2016-07-25T09:55:53.987Z,64.23
2016-07-25T09:56:54.690Z,64.53
2016-07-25T09:57:54.686Z,65.01
2016-07-25T09:58:53.977Z,63.65
2016-07-25T09:59:53.970Z,65.11
2016-07-25T10:00:53.962Z,66.08
2016-07-25T10:01:53.956Z,65.98
2016-07-25T10:02:54.677Z,66.14
2016-07-25T10:03:53.948Z,65.17
2016-07-25T10:04:53.947Z,65.66
2016-07-25T10:05:54.644Z,65.98
2016-07-25T10:06:53.934Z,66.27
2016-07-25T10:07:54.634Z,65.79
2016-07-25T10:08:53.924Z,65.53
2016-07-25T10:09:53.918Z,63.78
2016-07-25T10:10:53.913Z,64.56
2016-07-25T10:11:53.909Z,65.37
2016-07-25T10:12:54.623Z,63.52
2016-07-25T10:13:53.899Z,62.84
2016-07-25T10:14:54.602Z,62.16
2016-07-25T10:15:54.598Z,63.42
2016-07-25T10:16:53.888Z,61.77
2016-07-25T10:17:53.879Z,61.32
2016-07-25T10:18:54.586Z,62.58
2016-07-25T10:19:54.580Z,63.04
2016-07-25T10:20:53.875Z,62
2016-07-25T10:21:53.870Z,61.32
2016-07-25T10:22:54.568Z,60.08
2016-07-25T10:23:54.562Z,60.18
2016-07-25T10:24:53.855Z,58.85
2016-07-25T10:25:53.852Z,59.36
2016-07-25T10:26:54.554Z,58.75
2016-07-25T10:27:53.842Z,61.15
2016-07-25T10:28:54.551Z,58.53
2016-07-25T10:29:54.548Z,58.85
2016-07-25T10:30:54.545Z,56.86
2016-07-25T10:31:54.542Z,55.99
2016-07-25T10:32:54.537Z,52.83
2016-07-25T10:33:53.834Z,52.66
2016-07-25T10:34:53.829Z,52.56
2016-07-25T10:35:53.830Z,50.24
2016-07-25T10:36:53.832Z,51.53
2016-07-25T10:37:53.829Z,51.9
2016-07-25T10:38:54.535Z,51.21
2016-07-25T10:39:53.830Z,52.26
2016-07-25T10:40:54.537Z,53.73
2016-07-25T10:41:54.540Z,54.26
2016-07-25T10:42:54.539Z,55.79
2016-07-25T10:43:54.539Z,56.15
2016-07-25T10:44:54.736Z,56.12
2016-07-25T10:45:53.828Z,55.18
2016-07-25T10:46:53.827Z,54.75
2016-07-25T10:47:54.533Z,52.75
2016-07-25T10:48:53.828Z,51.41
2016-07-25T10:49:54.533Z,49.98
2016-07-25T10:50:54.538Z,49.8
2016-07-25T10:51:54.532Z,48.94
2016-07-25T10:52:53.827Z,47.21
2016-07-25T10:53:53.830Z,46.84
2016-07-25T10:54:54.539Z,47.31
2016-07-25T10:55:54.558Z,46.84
2016-07-25T10:56:53.830Z,45.69
2016-07-25T10:57:54.541Z,45.89
2016-07-25T10:58:53.837Z,45.1
2016-07-25T10:59:54.554Z,44.71
2016-07-25T11:00:53.853Z,46.77
2016-07-25T11:01:54.548Z,44.83
2016-07-25T11:02:53.845Z,45.23
2016-07-25T11:03:53.848Z,43.66
2016-07-25T11:04:54.555Z,45.97
2016-07-25T11:05:53.863Z,46.75
2016-07-25T11:06:53.855Z,45.59
2016-07-25T11:07:53.857Z,44.79
2016-07-25T11:08:53.856Z,45.69
2016-07-25T11:09:54.569Z,44.23
2016-07-25T11:10:53.866Z,45.42
2016-07-25T11:11:53.867Z,44.81
2016-07-25T11:12:53.871Z,45.89
2016-07-25T11:13:53.875Z,45.47
2016-07-25T11:14:53.877Z,45.4
2016-07-25T11:15:54.585Z,46.01
2016-07-25T11:16:53.897Z,47.53
2016-07-25T11:17:54.592Z,45.28
2016-07-25T11:18:53.886Z,46.94
2016-07-25T11:19:54.597Z,47.87
2016-07-25T11:20:54.603Z,47.19
2016-07-25T11:21:53.894Z,47.09
2016-07-25T11:22:54.602Z,48.48
2016-07-25T11:23:53.900Z,46.06
2016-07-25T11:24:53.902Z,46.23
2016-07-25T11:25:54.611Z,45.82
2016-07-25T11:26:53.905Z,47.11
2016-07-25T11:27:53.907Z,46.92
2016-07-25T11:28:53.916Z,44.89
2016-07-25T11:29:53.911Z,45.57
2016-07-25T11:30:53.914Z,44.1
2016-07-25T11:31:54.624Z,46.08
2016-07-25T11:32:53.921Z,44.34
2016-07-25T11:33:54.628Z,42.9
2016-07-25T11:34:53.923Z,44.76
2016-07-25T11:35:53.932Z,42.43
2016-07-25T11:36:54.641Z,40.48
2016-07-25T11:37:53.934Z,41.47
2016-07-25T11:38:53.936Z,41.56
2016-07-25T11:39:53.955Z,42.55
2016-07-25T11:40:53.943Z,41.76
2016-07-25T11:41:53.946Z,40.21
2016-07-25T11:42:53.951Z,41.41
2016-07-25T11:43:53.969Z,40.13
2016-07-25T11:44:54.669Z,38.88
2016-07-25T11:45:53.984Z,40.94
2016-07-25T11:46:53.964Z,41.19
2016-07-25T11:47:54.693Z,41.96
2016-07-25T11:48:53.988Z,40.21
2016-07-25T11:49:53.978Z,41.66
2016-07-25T11:50:54.687Z,42.62
2016-07-25T11:51:53.982Z,43.17
2016-07-25T11:52:53.989Z,44.03
2016-07-25T11:53:54.695Z,46.16
2016-07-25T11:54:53.993Z,46.23
2016-07-25T11:55:54.756Z,47.67
2016-07-25T11:56:54.703Z,47.56
2016-07-25T11:57:53.999Z,48.51
2016-07-25T11:58:53.998Z,49.27
2016-07-25T11:59:54.008Z,50.34
2016-07-25T12:00:54.006Z,51.29
2016-07-25T12:01:54.004Z,51.46
2016-07-25T12:02:54.013Z,52.53
2016-07-25T12:03:54.012Z,53.58
2016-07-25T12:04:54.009Z,54.52
2016-07-25T12:05:54.716Z,54.82
2016-07-25T12:06:54.022Z,54.89
2016-07-25T12:07:54.716Z,55.76
2016-07-25T12:08:54.209Z,56.41
2016-07-25T12:09:54.007Z,56.41
2016-07-25T12:10:54.711Z,56.71
2016-07-25T12:11:54.712Z,56.61
2016-07-25T12:12:54.002Z,56.22
2016-07-25T12:13:54.006Z,57.1
2016-07-25T12:14:54.001Z,56.81
2016-07-25T12:15:54.703Z,58.72
2016-07-25T12:16:54.703Z,59.21
2016-07-25T12:17:53.990Z,57.29
2016-07-25T12:18:53.991Z,57.46
2016-07-25T12:19:54.698Z,57.56
2016-07-25T12:20:54.706Z,57.78
2016-07-25T12:21:53.991Z,58.56
2016-07-25T12:22:53.980Z,57.78
2016-07-25T12:23:54.688Z,57.75
2016-07-25T12:24:54.697Z,59.59
2016-07-25T12:25:54.680Z,57.56
2016-07-25T12:26:53.974Z,57.75
2016-07-25T12:27:54.676Z,57.56
2016-07-25T12:28:54.670Z,57.26
2016-07-25T12:29:53.961Z,57.07
2016-07-25T12:30:54.665Z,57.56
2016-07-25T12:31:54.660Z,57.36
2016-07-25T12:32:54.660Z,59.38
2016-07-25T12:33:53.965Z,57.65
2016-07-25T12:34:53.945Z,58.79
2016-07-25T12:35:54.647Z,58.79
2016-07-25T12:36:53.938Z,57.72
2016-07-25T12:37:53.934Z,58.82
2016-07-25T12:38:54.636Z,58.33
2016-07-25T12:39:53.926Z,57.85
2016-07-25T12:40:53.939Z,57.75
2016-07-25T12:41:54.644Z,57.95
2016-07-25T12:42:54.623Z,58.72
2016-07-25T12:43:54.627Z,59.11
2016-07-25T12:44:54.817Z,58.72
2016-07-25T12:45:54.616Z,58.82
2016-07-25T12:46:53.904Z,59.21
2016-07-25T12:47:54.101Z,59.79
2016-07-25T12:48:53.897Z,58.82
2016-07-25T12:49:54.596Z,58.89
2016-07-25T12:50:54.593Z,58.98
2016-07-25T12:51:53.937Z,61.02
2016-07-25T12:52:54.613Z,59.47
2016-07-25T12:53:53.875Z,59.47
2016-07-25T12:54:53.871Z,61.41
2016-07-25T12:55:54.574Z,61.32
2016-07-25T12:56:55.543Z,60.28